Time;durP1;ratioP1;P1;durP2;ratioP2;P2;SDS_P1;SDS_P2;PMS_P1;PMS_P2;Temp;Humidity;BMP_temperature;BMP_pressure;BME280_temperature;BME280_humidity;BME280_pressure;Samples;Min_cycle;Max_cycle;Signal;HPM_P1;HPM_P2
2023/11/13 00:00:38;;;;;;;10.45;6.10;;;;;;;;;;4960994;28;20026;-78
2023/11/13 00:03:04;;;;;;;11.45;6.30;;;;;;;;;;4984390;28;20421;-78
2023/11/13 00:05:29;;;;;;;9.70;6.63;;;;;;;;;;4974843;28;20106;-78
2023/11/13 00:07:56;;;;;;;11.00;7.03;;;;;;;;;;4974369;28;20023;-78
2023/11/13 00:10:22;;;;;;;12.07;6.30;;;;;;;;;;4987252;28;20408;-77
2023/11/13 00:12:47;;;;;;;11.90;6.88;;;;;;;;;;4977862;28;20075;-78
2023/11/13 00:15:13;;;;;;;13.82;6.65;;;;;;;;;;4977839;28;20027;-78
2023/11/13 00:17:38;;;;;;;11.40;7.10;;;;;;;;;;4972812;28;20543;-78
2023/11/13 00:20:05;;;;;;;11.57;6.53;;;;;;;;;;4973378;28;20105;-78
2023/11/13 00:22:31;;;;;;;11.15;6.82;;;;;;;;;;4971061;28;20088;-78
2023/11/13 00:24:58;;;;;;;9.88;6.53;;;;;;;;;;4974608;28;20026;-77
2023/11/13 00:27:24;;;;;;;12.93;7.05;;;;;;;;;;4975838;28;20023;-81
2023/11/13 00:29:50;;;;;;;11.55;6.40;;;;;;;;;;4962792;28;20031;-82
2023/11/13 00:32:15;;;;;;;10.30;6.45;;;;;;;;;;4979312;28;20027;-82
2023/11/13 00:34:40;;;;;;;12.73;6.47;;;;;;;;;;4983293;28;20403;-82
2023/11/13 00:37:06;;;;;;;10.85;6.18;;;;;;;;;;4982252;28;20033;-82
2023/11/13 00:39:32;;;;;;;10.18;6.13;;;;;;;;;;4956434;28;20031;-82
2023/11/13 00:41:58;;;;;;;8.93;5.90;;;;;;;;;;4973495;28;20034;-81
2023/11/13 00:44:24;;;;;;;9.73;5.72;;;;;;;;;;4965562;28;20034;-82
2023/11/13 00:46:49;;;;;;;9.55;6.10;;;;;;;;;;4974591;28;20035;-82
2023/11/13 00:49:15;;;;;;;9.32;6.35;;;;;;;;;;4972851;28;20488;-82
2023/11/13 00:51:41;;;;;;;12.18;6.30;;;;;;;;;;4974139;28;20081;-82
2023/11/13 00:54:06;;;;;;;8.55;5.57;;;;;;;;;;4977550;28;20396;-81
2023/11/13 00:56:31;;;;;;;11.15;6.05;;;;;;;;;;4954973;28;20038;-82
2023/11/13 00:58:57;;;;;;;11.05;6.28;;;;;;;;;;4949003;28;20035;-82
2023/11/13 01:01:23;;;;;;;9.68;5.95;;;;;;;;;;4949340;28;20070;-82
2023/11/13 01:03:49;;;;;;;10.27;5.78;;;;;;;;;;4969250;28;20085;-82
2023/11/13 01:06:16;;;;;;;9.57;5.72;;;;;;;;;;4967419;28;20473;-81
2023/11/13 01:08:42;;;;;;;9.80;6.20;;;;;;;;;;4969426;28;20050;-82
2023/11/13 01:11:08;;;;;;;9.73;5.82;;;;;;;;;;4968463;28;20054;-82
2023/11/13 01:13:36;;;;;;;9.35;5.57;;;;;;;;;;4968584;28;20034;-82
2023/11/13 01:16:04;;;;;;;9.48;6.05;;;;;;;;;;4967845;28;20077;-81
2023/11/13 01:18:31;;;;;;;9.15;5.57;;;;;;;;;;4969345;28;20031;-81
2023/11/13 01:20:56;;;;;;;9.32;5.95;;;;;;;;;;4949647;28;20113;-82
2023/11/13 01:23:21;;;;;;;8.55;5.63;;;;;;;;;;4966285;28;20169;-82
2023/11/13 01:25:47;;;;;;;9.55;6.25;;;;;;;;;;4967473;28;20440;-78
2023/11/13 01:28:13;;;;;;;8.93;5.68;;;;;;;;;;4967580;28;20034;-78
2023/11/13 01:30:38;;;;;;;10.18;6.10;;;;;;;;;;4949512;28;20034;-78
2023/11/13 01:33:04;;;;;;;10.80;6.20;;;;;;;;;;4968555;28;20073;-78
2023/11/13 01:35:29;;;;;;;9.40;5.82;;;;;;;;;;4966329;28;20031;-78
2023/11/13 01:37:54;;;;;;;11.38;6.30;;;;;;;;;;4964483;28;20027;-78
2023/11/13 01:40:20;;;;;;;10.30;5.97;;;;;;;;;;4967725;28;20381;-78
2023/11/13 01:42:46;;;;;;;11.00;6.53;;;;;;;;;;4972945;28;20064;-78
2023/11/13 01:45:11;;;;;;;13.00;6.43;;;;;;;;;;4968702;28;20022;-77
2023/11/13 01:47:37;;;;;;;10.63;6.00;;;;;;;;;;4973924;28;20089;-78
2023/11/13 01:50:04;;;;;;;10.65;5.80;;;;;;;;;;4972334;28;20041;-78
2023/11/13 01:52:32;;;;;;;10.52;5.47;;;;;;;;;;4976462;28;20121;-77
2023/11/13 01:54:58;;;;;;;9.32;5.82;;;;;;;;;;4974651;28;20495;-78
2023/11/13 01:57:24;;;;;;;9.32;5.57;;;;;;;;;;4977727;28;20045;-77
2023/11/13 01:59:52;;;;;;;11.50;6.25;;;;;;;;;;4981758;28;20026;-78
2023/11/13 02:02:18;;;;;;;10.93;5.97;;;;;;;;;;4984496;28;20085;-78
2023/11/13 02:04:44;;;;;;;9.32;6.20;;;;;;;;;;4981518;28;20102;-78
2023/11/13 02:07:11;;;;;;;11.25;6.28;;;;;;;;;;4974449;28;20477;-78
2023/11/13 02:09:41;;;;;;;8.68;5.80;;;;;;;;;;4976696;28;20027;-78
2023/11/13 02:12:08;;;;;;;8.82;6.00;;;;;;;;;;4970760;28;20027;-78
2023/11/13 02:14:35;;;;;;;9.27;5.80;;;;;;;;;;4973858;28;20039;-78
2023/11/13 02:17:04;;;;;;;10.32;6.35;;;;;;;;;;4974345;28;20031;-77
2023/11/13 02:19:30;;;;;;;10.48;5.95;;;;;;;;;;4975755;28;20031;-78
2023/11/13 02:21:55;;;;;;;10.20;5.80;;;;;;;;;;4972023;28;20045;-78
2023/11/13 02:24:22;;;;;;;8.98;5.68;;;;;;;;;;4970221;28;20030;-78
2023/11/13 02:26:48;;;;;;;9.27;5.90;;;;;;;;;;4985814;28;20030;-78
2023/11/13 02:29:13;;;;;;;10.68;6.03;;;;;;;;;;4972936;28;20019;-78
2023/11/13 02:31:55;;;;;;;11.07;6.07;;;;;;;;;;4972037;28;20460;-77
2023/11/13 02:34:21;;;;;;;9.38;6.43;;;;;;;;;;4965308;28;20077;-78
2023/11/13 02:36:49;;;;;;;10.98;5.60;;;;;;;;;;4960389;28;20057;-78
2023/11/13 02:39:16;;;;;;;9.60;6.07;;;;;;;;;;4955954;28;20024;-78
2023/11/13 02:41:43;;;;;;;8.93;5.22;;;;;;;;;;4966645;28;20050;-78
2023/11/13 02:44:08;;;;;;;9.07;5.40;;;;;;;;;;4975775;28;20093;-77
2023/11/13 02:46:34;;;;;;;8.45;5.55;;;;;;;;;;4971974;28;20370;-82
2023/11/13 02:49:01;;;;;;;10.38;6.20;;;;;;;;;;4971469;28;20015;-82
2023/11/13 02:51:29;;;;;;;10.15;6.47;;;;;;;;;;4960077;28;20114;-82
2023/11/13 02:53:55;;;;;;;9.77;6.13;;;;;;;;;;4973598;28;20068;-82
2023/11/13 02:56:21;;;;;;;9.43;5.50;;;;;;;;;;4964432;28;20030;-82
2023/11/13 02:58:47;;;;;;;9.77;5.30;;;;;;;;;;4958400;28;20132;-82
2023/11/13 03:01:17;;;;;;;9.35;5.88;;;;;;;;;;4957107;28;20050;-82
2023/11/13 03:03:45;;;;;;;7.72;5.15;;;;;;;;;;4974175;28;20038;-82
2023/11/13 03:06:12;;;;;;;10.50;4.82;;;;;;;;;;4972176;28;20047;-82
2023/11/13 03:08:37;;;;;;;9.38;5.88;;;;;;;;;;4957662;28;20027;-82
2023/11/13 03:11:03;;;;;;;8.70;5.15;;;;;;;;;;4973386;28;20047;-82
2023/11/13 03:13:28;;;;;;;8.90;5.32;;;;;;;;;;4962709;28;20121;-82
2023/11/13 03:15:54;;;;;;;9.40;5.40;;;;;;;;;;4973439;28;20409;-82
2023/11/13 03:18:19;;;;;;;8.55;5.35;;;;;;;;;;4969459;28;20038;-82
2023/11/13 03:20:45;;;;;;;9.15;5.30;;;;;;;;;;4954320;28;20043;-82
2023/11/13 03:23:11;;;;;;;8.27;5.45;;;;;;;;;;4974021;28;20101;-82
2023/11/13 03:25:36;;;;;;;8.90;5.50;;;;;;;;;;4956095;28;20045;-82
2023/11/13 03:28:02;;;;;;;10.48;5.43;;;;;;;;;;4972070;28;20035;-82
2023/11/13 03:30:27;;;;;;;8.50;5.00;;;;;;;;;;4961539;28;20037;-82
2023/11/13 03:32:53;;;;;;;8.85;5.50;;;;;;;;;;4960323;28;20034;-82
2023/11/13 03:35:19;;;;;;;10.52;5.22;;;;;;;;;;4978402;28;20030;-82
2023/11/13 03:37:44;;;;;;;10.57;5.65;;;;;;;;;;4964727;28;20496;-83
2023/11/13 03:40:10;;;;;;;8.02;5.22;;;;;;;;;;4977714;28;20496;-82
2023/11/13 03:42:36;;;;;;;8.48;5.10;;;;;;;;;;4970070;28;20034;-82
2023/11/13 03:45:02;;;;;;;11.48;5.43;;;;;;;;;;4960321;28;20373;-82
2023/11/13 03:47:28;;;;;;;9.20;5.75;;;;;;;;;;4977514;28;20213;-78
2023/11/13 03:49:54;;;;;;;9.40;5.55;;;;;;;;;;4980953;28;20073;-77
2023/11/13 03:52:19;;;;;;;9.60;5.13;;;;;;;;;;4978433;28;20042;-78
2023/11/13 03:54:44;;;;;;;8.05;5.57;;;;;;;;;;4979839;28;20434;-78
2023/11/13 03:57:11;;;;;;;8.93;5.72;;;;;;;;;;4982684;28;20027;-82
2023/11/13 03:59:36;;;;;;;8.43;5.22;;;;;;;;;;4978493;28;20113;-82
2023/11/13 04:02:02;;;;;;;8.38;5.43;;;;;;;;;;4959883;28;20125;-82
2023/11/13 04:04:28;;;;;;;8.18;5.47;;;;;;;;;;4976588;28;20030;-82
2023/11/13 04:06:53;;;;;;;8.18;5.32;;;;;;;;;;4975068;28;20031;-83
2023/11/13 04:09:19;;;;;;;10.20;5.95;;;;;;;;;;4976934;28;20610;-82
2023/11/13 04:11:45;;;;;;;9.00;5.32;;;;;;;;;;4974530;28;20434;-83
2023/11/13 04:14:11;;;;;;;11.77;5.70;;;;;;;;;;4974841;28;20045;-82
2023/11/13 04:16:36;;;;;;;10.68;5.65;;;;;;;;;;4972755;28;20457;-82
2023/11/13 04:19:05;;;;;;;7.13;5.30;;;;;;;;;;4973420;28;20031;-82
2023/11/13 04:21:31;;;;;;;11.80;5.70;;;;;;;;;;4975076;28;20070;-82
2023/11/13 04:23:58;;;;;;;10.00;5.88;;;;;;;;;;4974453;28;20214;-82
2023/11/13 04:26:26;;;;;;;10.23;6.22;;;;;;;;;;4975995;28;20027;-82
2023/11/13 04:28:51;;;;;;;10.73;5.97;;;;;;;;;;4975653;28;20022;-82
2023/11/13 04:31:17;;;;;;;10.73;5.90;;;;;;;;;;4977573;28;20031;-81
2023/11/13 04:33:42;;;;;;;8.82;6.07;;;;;;;;;;4974283;28;20421;-82
2023/11/13 04:36:08;;;;;;;11.75;5.90;;;;;;;;;;4972974;28;20030;-82
2023/11/13 04:38:36;;;;;;;10.50;6.72;;;;;;;;;;4973239;28;20528;-82
2023/11/13 04:41:01;;;;;;;11.15;5.88;;;;;;;;;;4973123;28;20030;-82
2023/11/13 04:43:27;;;;;;;9.50;6.30;;;;;;;;;;4976342;28;20030;-82
2023/11/13 04:45:52;;;;;;;11.23;6.50;;;;;;;;;;4977462;28;20472;-81
2023/11/13 04:48:18;;;;;;;12.15;6.68;;;;;;;;;;4974622;28;20504;-82
2023/11/13 04:50:43;;;;;;;10.80;6.35;;;;;;;;;;4974807;28;20484;-81
2023/11/13 04:53:08;;;;;;;10.52;6.50;;;;;;;;;;4975379;28;20026;-82
2023/11/13 04:55:34;;;;;;;11.13;6.75;;;;;;;;;;4976558;28;20508;-82
2023/11/13 04:57:59;;;;;;;10.65;6.82;;;;;;;;;;4974901;28;20506;-82
2023/11/13 05:00:25;;;;;;;14.27;7.28;;;;;;;;;;4979396;28;20030;-82
2023/11/13 05:02:51;;;;;;;11.93;7.05;;;;;;;;;;4978785;28;20035;-82
2023/11/13 05:05:16;;;;;;;9.60;6.38;;;;;;;;;;4972529;28;20026;-82
2023/11/13 05:07:42;;;;;;;11.80;7.45;;;;;;;;;;4976512;28;20085;-82
2023/11/13 05:10:08;;;;;;;13.32;6.70;;;;;;;;;;4978174;28;20018;-82
2023/11/13 05:12:33;;;;;;;14.40;7.85;;;;;;;;;;4975471;28;20106;-82
2023/11/13 05:14:59;;;;;;;14.27;7.65;;;;;;;;;;4962489;28;20453;-82
2023/11/13 05:17:24;;;;;;;16.98;7.28;;;;;;;;;;4972674;28;20062;-82
2023/11/13 05:19:49;;;;;;;12.02;7.20;;;;;;;;;;4941381;28;21390;-81
2023/11/13 05:22:15;;;;;;;11.93;7.40;;;;;;;;;;4974929;28;20102;-82
2023/11/13 05:24:41;;;;;;;13.32;7.53;;;;;;;;;;4973060;28;20031;-81
2023/11/13 05:27:06;;;;;;;11.65;7.28;;;;;;;;;;4957959;28;20030;-82
2023/11/13 05:29:32;;;;;;;13.27;7.28;;;;;;;;;;4971981;28;20503;-82
2023/11/13 05:31:57;;;;;;;15.73;7.68;;;;;;;;;;4939983;28;20035;-82
2023/11/13 05:34:24;;;;;;;11.68;7.28;;;;;;;;;;4976994;28;20053;-82
2023/11/13 05:36:50;;;;;;;18.48;7.25;;;;;;;;;;4954957;28;20085;-82
2023/11/13 05:39:15;;;;;;;12.13;7.20;;;;;;;;;;4968503;28;20440;-82
2023/11/13 05:41:41;;;;;;;12.82;7.57;;;;;;;;;;4976656;28;20506;-82
2023/11/13 05:44:06;;;;;;;15.13;7.85;;;;;;;;;;4956845;28;21069;-81
2023/11/13 05:46:32;;;;;;;15.07;7.72;;;;;;;;;;4969821;28;20685;-81
2023/11/13 05:48:59;;;;;;;13.63;8.18;;;;;;;;;;4975662;28;20023;-82
2023/11/13 05:51:24;;;;;;;14.02;7.45;;;;;;;;;;4958288;28;20401;-82
2023/11/13 05:53:50;;;;;;;13.80;8.07;;;;;;;;;;4976980;28;20045;-82
2023/11/13 05:56:16;;;;;;;13.02;7.68;;;;;;;;;;4946921;28;20079;-82
2023/11/13 05:58:42;;;;;;;13.63;7.63;;;;;;;;;;4965655;28;20098;-82
2023/11/13 06:01:08;;;;;;;13.70;8.18;;;;;;;;;;4967374;28;20026;-85
2023/11/13 06:03:35;;;;;;;15.23;8.05;;;;;;;;;;4968642;28;20476;-83
2023/11/13 06:06:00;;;;;;;13.18;8.30;;;;;;;;;;4965958;28;20043;-82
2023/11/13 06:08:26;;;;;;;16.98;8.18;;;;;;;;;;4956112;28;20038;-82
2023/11/13 06:10:51;;;;;;;14.75;8.55;;;;;;;;;;4970696;28;20030;-82
2023/11/13 06:13:17;;;;;;;15.32;8.45;;;;;;;;;;4950637;28;20050;-82
2023/11/13 06:15:42;;;;;;;14.48;7.78;;;;;;;;;;4977022;28;20034;-82
2023/11/13 06:18:08;;;;;;;13.43;7.72;;;;;;;;;;4971633;28;20409;-82
2023/11/13 06:20:33;;;;;;;13.50;8.18;;;;;;;;;;4948217;28;20035;-82
2023/11/13 06:23:01;;;;;;;14.95;8.35;;;;;;;;;;4955549;28;20027;-82
2023/11/13 06:25:26;;;;;;;16.02;8.40;;;;;;;;;;4973683;28;20447;-82
2023/11/13 06:27:52;;;;;;;13.82;8.05;;;;;;;;;;4971315;28;20031;-82
2023/11/13 06:30:18;;;;;;;15.73;8.13;;;;;;;;;;4955166;28;20034;-82
2023/11/13 06:32:47;;;;;;;13.43;8.27;;;;;;;;;;4958880;28;20507;-83
2023/11/13 06:35:13;;;;;;;13.30;8.48;;;;;;;;;;4957694;28;20027;-82
2023/11/13 06:37:40;;;;;;;13.05;8.15;;;;;;;;;;4954916;28;20041;-82
2023/11/13 06:40:06;;;;;;;16.00;8.43;;;;;;;;;;4951576;28;20097;-82
2023/11/13 06:42:32;;;;;;;14.73;8.73;;;;;;;;;;4971230;28;20041;-81
2023/11/13 06:44:58;;;;;;;15.23;8.27;;;;;;;;;;4974999;28;20026;-81
2023/11/13 06:47:24;;;;;;;13.93;8.18;;;;;;;;;;4959030;28;20046;-81
2023/11/13 06:49:49;;;;;;;15.65;8.70;;;;;;;;;;4974556;28;20022;-81
2023/11/13 06:52:15;;;;;;;12.48;7.65;;;;;;;;;;4985013;28;20125;-81
2023/11/13 06:54:40;;;;;;;13.75;7.93;;;;;;;;;;4972725;28;20389;-81
2023/11/13 06:57:07;;;;;;;14.15;7.57;;;;;;;;;;4979990;28;20117;-81
2023/11/13 06:59:32;;;;;;;14.70;8.25;;;;;;;;;;4977573;28;20481;-81
2023/11/13 07:01:58;;;;;;;14.75;8.23;;;;;;;;;;4975699;28;20074;-81
2023/11/13 07:04:26;;;;;;;13.32;7.72;;;;;;;;;;4967462;28;20026;-81
2023/11/13 07:06:52;;;;;;;13.35;7.00;;;;;;;;;;4948898;28;20551;-81
2023/11/13 07:09:17;;;;;;;12.30;7.65;;;;;;;;;;4981304;28;20042;-81
2023/11/13 07:11:45;;;;;;;12.57;7.78;;;;;;;;;;4958414;28;20038;-81
2023/11/13 07:14:11;;;;;;;13.35;7.13;;;;;;;;;;4978739;28;20105;-81
2023/11/13 07:16:38;;;;;;;13.52;7.20;;;;;;;;;;4960215;28;20031;-81
2023/11/13 07:19:03;;;;;;;12.73;6.80;;;;;;;;;;4984968;28;20065;-82
2023/11/13 07:21:33;;;;;;;11.05;6.78;;;;;;;;;;4957929;28;20055;-82
2023/11/13 07:23:59;;;;;;;13.65;6.82;;;;;;;;;;4953685;28;20054;-82
2023/11/13 07:26:28;;;;;;;11.98;7.22;;;;;;;;;;4962379;28;20555;-77
2023/11/13 07:28:53;;;;;;;12.60;6.35;;;;;;;;;;4985540;28;20022;-77
2023/11/13 07:31:19;;;;;;;11.88;6.90;;;;;;;;;;4976148;28;20093;-77
2023/11/13 07:33:46;;;;;;;11.80;6.35;;;;;;;;;;4962365;28;20118;-77
2023/11/13 07:36:11;;;;;;;12.00;6.40;;;;;;;;;;4975944;28;20031;-77
2023/11/13 07:38:37;;;;;;;10.25;6.32;;;;;;;;;;4953388;28;20027;-78
2023/11/13 07:41:02;;;;;;;11.77;6.72;;;;;;;;;;4973966;28;20038;-77
2023/11/13 07:43:31;;;;;;;10.73;6.60;;;;;;;;;;4979082;28;20449;-77
2023/11/13 07:45:57;;;;;;;15.50;7.10;;;;;;;;;;4978651;28;20026;-81
2023/11/13 07:48:24;;;;;;;12.52;7.18;;;;;;;;;;4976861;28;20057;-81
2023/11/13 07:50:50;;;;;;;12.25;7.03;;;;;;;;;;4975373;28;20034;-81
2023/11/13 07:53:16;;;;;;;12.30;7.32;;;;;;;;;;4975507;28;20034;-82
2023/11/13 07:55:43;;;;;;;15.45;7.28;;;;;;;;;;4974257;28;20023;-81
2023/11/13 07:58:10;;;;;;;11.90;7.20;;;;;;;;;;4976709;28;20042;-82
2023/11/13 08:00:36;;;;;;;14.18;8.00;;;;;;;;;;4955407;28;20041;-82
2023/11/13 08:03:03;;;;;;;15.75;7.88;;;;;;;;;;4972011;28;20525;-82
2023/11/13 08:05:30;;;;;;;16.80;7.32;;;;;;;;;;4957470;28;20126;-81
2023/11/13 08:07:55;;;;;;;13.60;7.13;;;;;;;;;;4976524;28;20058;-81
2023/11/13 08:10:21;;;;;;;15.57;7.30;;;;;;;;;;4957857;28;20453;-82
2023/11/13 08:12:49;;;;;;;17.15;7.90;;;;;;;;;;4969547;28;20034;-81
2023/11/13 08:15:15;;;;;;;14.07;7.78;;;;;;;;;;4970114;28;20480;-81
2023/11/13 08:17:42;;;;;;;14.20;7.65;;;;;;;;;;4973098;28;20496;-82
2023/11/13 08:20:09;;;;;;;12.95;7.70;;;;;;;;;;4959695;28;20472;-82
2023/11/13 08:22:35;;;;;;;15.45;7.57;;;;;;;;;;4959812;28;20117;-82
2023/11/13 08:25:04;;;;;;;17.55;8.10;;;;;;;;;;4958730;28;20026;-82
2023/11/13 08:27:30;;;;;;;15.07;7.63;;;;;;;;;;4976041;28;20019;-83
2023/11/13 08:29:56;;;;;;;13.70;7.22;;;;;;;;;;4970641;28;20101;-82
2023/11/13 08:32:22;;;;;;;12.45;7.15;;;;;;;;;;4978803;28;20496;-83
2023/11/13 08:34:48;;;;;;;15.45;7.68;;;;;;;;;;4976662;28;20031;-83
2023/11/13 08:37:15;;;;;;;16.95;7.00;;;;;;;;;;4969229;28;20037;-83
2023/11/13 08:39:40;;;;;;;14.55;7.15;;;;;;;;;;4968970;28;20085;-83
2023/11/13 08:42:07;;;;;;;15.02;6.40;;;;;;;;;;4962807;28;20026;-83
2023/11/13 08:44:33;;;;;;;16.63;6.57;;;;;;;;;;4972839;28;20035;-83
2023/11/13 08:46:58;;;;;;;14.20;5.93;;;;;;;;;;4972660;28;20474;-83
2023/11/13 08:49:24;;;;;;;12.73;5.60;;;;;;;;;;4967494;28;20050;-83
2023/11/13 08:51:49;;;;;;;16.42;5.50;;;;;;;;;;4977668;28;20050;-83
2023/11/13 08:54:16;;;;;;;11.02;5.18;;;;;;;;;;4977250;28;20034;-83
2023/11/13 08:56:42;;;;;;;14.32;4.97;;;;;;;;;;4974455;28;20022;-83
2023/11/13 08:59:12;;;;;;;13.20;4.95;;;;;;;;;;4975865;28;20030;-83
2023/11/13 09:01:40;;;;;;;13.57;5.25;;;;;;;;;;4979556;28;20445;-83
2023/11/13 09:04:06;;;;;;;13.07;5.22;;;;;;;;;;4971799;28;20109;-84
2023/11/13 09:06:35;;;;;;;10.50;4.80;;;;;;;;;;4965134;28;20037;-83
2023/11/13 09:09:01;;;;;;;10.93;4.65;;;;;;;;;;4976137;28;20057;-82
2023/11/13 09:11:28;;;;;;;15.88;4.93;;;;;;;;;;4959512;28;20030;-83
2023/11/13 09:13:54;;;;;;;12.25;4.45;;;;;;;;;;4974618;28;20046;-83
2023/11/13 09:16:20;;;;;;;12.68;4.32;;;;;;;;;;4955179;28;20110;-85
2023/11/13 09:18:48;;;;;;;11.13;4.53;;;;;;;;;;4969498;28;20119;-85
2023/11/13 09:21:17;;;;;;;12.20;4.20;;;;;;;;;;4957367;28;20034;-84
2023/11/13 09:23:43;;;;;;;10.68;3.97;;;;;;;;;;4974099;28;20026;-84
2023/11/13 09:26:11;;;;;;;11.00;4.07;;;;;;;;;;4974632;28;20033;-83
2023/11/13 09:28:37;;;;;;;12.60;4.30;;;;;;;;;;4960438;28;20096;-84
2023/11/13 09:31:03;;;;;;;13.23;3.92;;;;;;;;;;4958908;28;20026;-84
2023/11/13 09:33:29;;;;;;;11.13;3.47;;;;;;;;;;4972783;28;20034;-83
2023/11/13 09:35:54;;;;;;;11.30;3.28;;;;;;;;;;4971606;28;20101;-82
2023/11/13 09:38:20;;;;;;;7.38;3.15;;;;;;;;;;4971799;28;20117;-83
2023/11/13 09:40:46;;;;;;;8.75;3.22;;;;;;;;;;4957579;28;20537;-83
2023/11/13 09:43:35;;;;;;;11.13;3.10;;;;;;;;;;4974872;28;20385;-83
2023/11/13 09:46:06;;;;;;;5.53;3.00;;;;;;;;;;4982389;28;20153;-83
2023/11/13 09:48:35;;;;;;;8.75;2.63;;;;;;;;;;4951473;28;20038;-83
2023/11/13 09:51:02;;;;;;;8.00;2.70;;;;;;;;;;4971783;28;20141;-83
2023/11/13 09:53:28;;;;;;;10.73;2.90;;;;;;;;;;4978474;28;20377;-83
2023/11/13 09:55:55;;;;;;;6.82;2.75;;;;;;;;;;4973228;28;20033;-83
2023/11/13 09:58:21;;;;;;;6.53;2.45;;;;;;;;;;4968410;28;20109;-83
2023/11/13 10:00:47;;;;;;;7.78;2.50;;;;;;;;;;4946051;28;20489;-83
2023/11/13 10:03:14;;;;;;;5.18;2.25;;;;;;;;;;4977111;28;20050;-83
2023/11/13 10:05:42;;;;;;;5.93;2.20;;;;;;;;;;4972147;28;20019;-83
2023/11/13 10:08:08;;;;;;;6.25;2.20;;;;;;;;;;4969602;28;20030;-83
2023/11/13 10:10:34;;;;;;;6.38;2.30;;;;;;;;;;4955906;28;20031;-83
2023/11/13 10:13:01;;;;;;;8.57;2.30;;;;;;;;;;4974684;28;20026;-83
2023/11/13 10:15:28;;;;;;;4.53;2.20;;;;;;;;;;4969877;28;20030;-83
2023/11/13 10:17:59;;;;;;;5.70;2.33;;;;;;;;;;4953447;28;20037;-83
2023/11/13 10:20:26;;;;;;;4.10;1.98;;;;;;;;;;4949676;28;20142;-84
2023/11/13 10:22:59;;;;;;;5.07;2.03;;;;;;;;;;4975265;28;20041;-83
2023/11/13 10:25:39;;;;;;;2.95;1.80;;;;;;;;;;4958051;28;20022;-83
2023/11/13 10:28:05;;;;;;;5.78;2.00;;;;;;;;;;4974026;28;20061;-83
2023/11/13 10:30:30;;;;;;;4.50;2.10;;;;;;;;;;4972674;28;20066;-84
2023/11/13 10:32:59;;;;;;;7.28;2.75;;;;;;;;;;4970896;28;20429;-84
2023/11/13 10:35:38;;;;;;;3.80;2.10;;;;;;;;;;4975233;28;20480;-83
2023/11/13 10:38:03;;;;;;;5.63;2.38;;;;;;;;;;4972368;28;20117;-83
2023/11/13 10:40:33;;;;;;;6.28;2.75;;;;;;;;;;4973933;28;20126;-83
2023/11/13 10:43:04;;;;;;;5.80;2.55;;;;;;;;;;4954233;28;20452;-84
2023/11/13 10:45:32;;;;;;;6.32;2.60;;;;;;;;;;4954599;28;20088;-83
2023/11/13 10:47:57;;;;;;;5.93;2.55;;;;;;;;;;4981718;28;20105;-83
2023/11/13 10:50:24;;;;;;;5.35;3.00;;;;;;;;;;4970151;28;20110;-83
2023/11/13 10:52:54;;;;;;;6.78;2.92;;;;;;;;;;4959537;28;20030;-82
2023/11/13 10:55:22;;;;;;;6.10;3.05;;;;;;;;;;4969587;28;20035;-82
2023/11/13 10:57:48;;;;;;;8.35;3.17;;;;;;;;;;4970204;28;20018;-83
2023/11/13 11:00:14;;;;;;;7.65;3.50;;;;;;;;;;4957737;28;20037;-84
2023/11/13 11:02:45;;;;;;;7.03;3.78;;;;;;;;;;4954019;28;20462;-83
2023/11/13 11:05:22;;;;;;;5.60;3.08;;;;;;;;;;4973036;28;20033;-83
2023/11/13 11:07:59;;;;;;;8.70;3.88;;;;;;;;;;4964345;28;20038;-83
2023/11/13 11:10:25;;;;;;;6.65;3.58;;;;;;;;;;4975849;28;20586;-83
2023/11/13 11:12:59;;;;;;;11.65;3.78;;;;;;;;;;4969136;28;20113;-82
2023/11/13 11:15:53;;;;;;;9.18;3.90;;;;;;;;;;4967621;28;20019;-83
2023/11/13 11:18:27;;;;;;;7.72;4.40;;;;;;;;;;4952422;28;20129;-83
2023/11/13 11:21:46;;;;;;;10.10;4.50;;;;;;;;;;4969744;28;20489;-83
2023/11/13 11:24:28;;;;;;;10.98;4.60;;;;;;;;;;4959886;28;20035;-83
2023/11/13 11:27:01;;;;;;;13.02;5.03;;;;;;;;;;4954019;28;20447;-83
2023/11/13 11:29:39;;;;;;;13.18;4.90;;;;;;;;;;4968200;28;20023;-83
2023/11/13 11:32:14;;;;;;;10.02;4.35;;;;;;;;;;4982386;28;20551;-83
2023/11/13 11:34:42;;;;;;;9.23;4.38;;;;;;;;;;4962384;28;20037;-82
2023/11/13 11:37:13;;;;;;;15.30;5.00;;;;;;;;;;4985553;28;20067;-83
2023/11/13 11:39:46;;;;;;;11.55;4.93;;;;;;;;;;4967772;28;20030;-82
2023/11/13 11:42:31;;;;;;;13.73;4.43;;;;;;;;;;4955001;28;20022;-83
2023/11/13 11:44:59;;;;;;;9.30;4.20;;;;;;;;;;4977042;28;20069;-83
2023/11/13 11:47:28;;;;;;;14.70;4.53;;;;;;;;;;4955767;28;20452;-83
2023/11/13 11:49:56;;;;;;;10.07;4.28;;;;;;;;;;4979494;28;20050;-82
2023/11/13 11:52:54;;;;;;;12.48;4.38;;;;;;;;;;4971845;28;20105;-83
2023/11/13 11:55:22;;;;;;;14.13;4.13;;;;;;;;;;4981938;28;20030;-84
2023/11/13 11:57:49;;;;;;;13.82;3.83;;;;;;;;;;4959449;28;20507;-83
2023/11/13 12:00:23;;;;;;;11.93;4.25;;;;;;;;;;4972508;28;20037;-83
2023/11/13 12:02:53;;;;;;;14.02;4.47;;;;;;;;;;4968429;28;20069;-84
2023/11/13 12:05:21;;;;;;;12.10;4.07;;;;;;;;;;4979961;28;20126;-83
2023/11/13 12:07:48;;;;;;;10.80;4.22;;;;;;;;;;4955598;28;20031;-77
2023/11/13 12:10:14;;;;;;;14.73;4.25;;;;;;;;;;4968716;28;20050;-77
2023/11/13 12:12:44;;;;;;;13.15;4.38;;;;;;;;;;4954000;28;20117;-77
2023/11/13 12:15:11;;;;;;;10.45;4.35;;;;;;;;;;4956903;28;20037;-77
2023/11/13 12:17:37;;;;;;;18.55;4.45;;;;;;;;;;4973055;28;20045;-77
2023/11/13 12:20:07;;;;;;;12.98;3.92;;;;;;;;;;4976121;28;20109;-77
2023/11/13 12:22:36;;;;;;;10.75;3.78;;;;;;;;;;4969597;28;20023;-77
2023/11/13 12:25:06;;;;;;;12.30;3.65;;;;;;;;;;4978832;28;20558;-76
2023/11/13 12:27:32;;;;;;;12.98;4.03;;;;;;;;;;4957637;28;20117;-77
2023/11/13 12:30:06;;;;;;;10.02;3.90;;;;;;;;;;4976011;28;20565;-77
2023/11/13 12:32:39;;;;;;;13.73;3.70;;;;;;;;;;4981073;28;20539;-77
2023/11/13 12:35:05;;;;;;;11.60;3.85;;;;;;;;;;4963431;28;20042;-77
2023/11/13 12:37:30;;;;;;;10.52;3.88;;;;;;;;;;4975362;28;20030;-77
2023/11/13 12:40:00;;;;;;;12.20;3.70;;;;;;;;;;4961752;28;20027;-77
2023/11/13 12:42:26;;;;;;;10.02;3.92;;;;;;;;;;4976514;28;20385;-77
2023/11/13 12:44:55;;;;;;;8.77;3.75;;;;;;;;;;4976167;28;20499;-77
2023/11/13 12:47:20;;;;;;;10.93;4.40;;;;;;;;;;4979577;28;20113;-77
2023/11/13 12:49:48;;;;;;;11.52;3.45;;;;;;;;;;4975312;28;20158;-77
2023/11/13 12:52:16;;;;;;;9.88;3.83;;;;;;;;;;4975365;28;20026;-77
2023/11/13 12:54:43;;;;;;;8.90;3.38;;;;;;;;;;4977032;28;20121;-77
2023/11/13 12:57:15;;;;;;;9.55;3.25;;;;;;;;;;4978995;28;20031;-77
2023/11/13 12:59:44;;;;;;;11.05;3.15;;;;;;;;;;4943467;28;20031;-77
2023/11/13 13:02:13;;;;;;;13.48;3.35;;;;;;;;;;4989175;28;20366;-77
2023/11/13 13:04:40;;;;;;;8.18;3.00;;;;;;;;;;4955718;28;20401;-77
2023/11/13 13:07:07;;;;;;;10.40;3.28;;;;;;;;;;4973140;28;20038;-77
2023/11/13 13:09:32;;;;;;;10.73;3.13;;;;;;;;;;4959907;28;20032;-77
2023/11/13 13:11:59;;;;;;;10.63;3.35;;;;;;;;;;4973800;28;20427;-77
2023/11/13 13:14:26;;;;;;;8.80;3.22;;;;;;;;;;4970847;28;20398;-77
2023/11/13 13:16:55;;;;;;;10.73;3.58;;;;;;;;;;4972823;28;20026;-77
2023/11/13 13:19:25;;;;;;;12.85;3.35;;;;;;;;;;4957451;28;20026;-77
2023/11/13 13:21:53;;;;;;;10.10;3.50;;;;;;;;;;4977400;28;20142;-77
2023/11/13 13:24:19;;;;;;;12.30;3.70;;;;;;;;;;4960052;28;20035;-77
2023/11/13 13:26:45;;;;;;;8.27;3.58;;;;;;;;;;4977623;28;20165;-84
2023/11/13 13:29:11;;;;;;;7.50;3.53;;;;;;;;;;4974714;28;20114;-83
2023/11/13 13:31:37;;;;;;;9.05;3.47;;;;;;;;;;4981597;28;20492;-83
2023/11/13 13:34:04;;;;;;;10.02;3.30;;;;;;;;;;4962017;28;20035;-84
2023/11/13 13:36:30;;;;;;;10.02;3.58;;;;;;;;;;4980783;28;20078;-77
2023/11/13 13:38:57;;;;;;;8.07;3.50;;;;;;;;;;4983943;28;20388;-77
2023/11/13 13:41:23;;;;;;;12.25;3.55;;;;;;;;;;4976209;28;20535;-77
2023/11/13 13:43:49;;;;;;;9.15;3.60;;;;;;;;;;4971068;28;20069;-77
2023/11/13 13:46:17;;;;;;;9.30;3.58;;;;;;;;;;4960927;28;20058;-77
2023/11/13 13:48:46;;;;;;;8.32;3.50;;;;;;;;;;4964837;28;20484;-77
2023/11/13 13:51:12;;;;;;;9.32;3.65;;;;;;;;;;4963904;28;20475;-77
2023/11/13 13:53:39;;;;;;;9.13;3.53;;;;;;;;;;4968997;28;20038;-77
2023/11/13 13:56:10;;;;;;;8.73;3.42;;;;;;;;;;4954779;28;20035;-77
2023/11/13 13:58:41;;;;;;;7.70;3.28;;;;;;;;;;4964894;28;20105;-77
2023/11/13 14:01:08;;;;;;;10.20;3.65;;;;;;;;;;4975483;28;20030;-77
2023/11/13 14:03:34;;;;;;;7.55;3.55;;;;;;;;;;4971917;28;21911;-77
2023/11/13 14:06:01;;;;;;;10.35;3.92;;;;;;;;;;4972171;28;20477;-77
2023/11/13 14:08:27;;;;;;;9.20;3.60;;;;;;;;;;4972716;28;20023;-77
2023/11/13 14:10:53;;;;;;;8.85;3.75;;;;;;;;;;4959255;28;20506;-77
2023/11/13 14:13:19;;;;;;;8.50;3.60;;;;;;;;;;4957658;28;20122;-77
2023/11/13 14:15:47;;;;;;;8.93;3.78;;;;;;;;;;4972354;28;20424;-77
2023/11/13 14:18:14;;;;;;;12.07;3.75;;;;;;;;;;4976825;28;20089;-77
2023/11/13 14:20:41;;;;;;;6.28;3.60;;;;;;;;;;4979313;28;20109;-77
2023/11/13 14:23:07;;;;;;;8.57;3.47;;;;;;;;;;4955253;28;20027;-77
2023/11/13 14:25:32;;;;;;;11.35;4.55;;;;;;;;;;4979641;28;20031;-77
2023/11/13 14:27:58;;;;;;;13.68;3.35;;;;;;;;;;4964746;28;20500;-77
2023/11/13 14:30:29;;;;;;;11.55;3.45;;;;;;;;;;4974832;28;20109;-78
2023/11/13 14:33:01;;;;;;;7.63;2.70;;;;;;;;;;4970704;28;20512;-77